createdAt,value
2018-12-07T00:03:50.651Z,9.40
2018-12-07T00:08:25.599Z,9.40
2018-12-07T00:13:00.457Z,9.30
2018-12-07T00:17:35.366Z,9.30
2018-12-07T00:22:10.245Z,9.30
2018-12-07T00:26:45.127Z,9.40
2018-12-07T00:31:19.992Z,9.50
2018-12-07T00:35:55.124Z,9.50
2018-12-07T00:40:29.983Z,9.40
2018-12-07T00:45:05.740Z,9.50
2018-12-07T00:49:40.600Z,9.40
2018-12-07T00:54:15.736Z,9.40
2018-12-07T00:58:50.603Z,9.40
2018-12-07T01:03:25.505Z,9.40
2018-12-07T01:08:00.364Z,9.40
2018-12-07T01:12:35.299Z,9.40
2018-12-07T01:17:10.160Z,9.40
2018-12-07T01:21:45.040Z,9.50
2018-12-07T01:26:19.904Z,9.50
2018-12-07T01:30:54.799Z,9.40
2018-12-07T01:35:29.658Z,9.30
2018-12-07T01:40:05.889Z,9.40
2018-12-07T01:44:40.743Z,9.40
2018-12-07T01:49:15.635Z,9.40
2018-12-07T01:53:50.491Z,9.40
2018-12-07T01:58:25.376Z,9.40
2018-12-07T02:03:00.241Z,9.40
2018-12-07T02:07:35.645Z,9.40
2018-12-07T02:12:10.507Z,9.50
2018-12-07T02:16:45.426Z,9.40
2018-12-07T02:21:20.291Z,9.40
2018-12-07T02:25:55.168Z,9.30
2018-12-07T02:30:30.032Z,9.30
2018-12-07T02:35:05.536Z,9.30
2018-12-07T02:39:40.404Z,9.30
2018-12-07T02:44:15.288Z,9.30
2018-12-07T02:48:50.219Z,9.30
2018-12-07T02:53:25.093Z,9.20
2018-12-07T02:57:59.958Z,9.20
2018-12-07T03:02:34.836Z,9.30
2018-12-07T03:07:09.699Z,9.30
2018-12-07T03:11:44.583Z,9.30
2018-12-07T03:16:19.455Z,9.20
2018-12-07T03:20:54.367Z,9.20
2018-12-07T03:25:29.230Z,9.30
2018-12-07T03:30:04.813Z,9.30
2018-12-07T03:34:39.763Z,9.30
2018-12-07T03:39:14.640Z,9.30
2018-12-07T03:43:49.508Z,9.30
2018-12-07T03:48:24.388Z,9.30
2018-12-07T03:52:59.289Z,9.30
2018-12-07T03:57:34.239Z,9.30
2018-12-07T04:02:09.160Z,9.30
2018-12-07T04:06:44.052Z,9.20
2018-12-07T04:11:18.915Z,9.20
2018-12-07T04:15:53.803Z,9.30
2018-12-07T04:20:28.668Z,9.30
2018-12-07T04:25:03.577Z,9.30
2018-12-07T04:29:38.440Z,9.30
2018-12-07T04:34:13.326Z,9.30
2018-12-07T04:38:48.269Z,9.20
2018-12-07T04:43:23.157Z,9.30
2018-12-07T04:47:58.025Z,9.30
2018-12-07T04:52:32.909Z,9.10
2018-12-07T04:57:07.780Z,9.00
2018-12-07T05:01:42.683Z,9.00
2018-12-07T05:06:17.543Z,8.90
2018-12-07T05:10:52.428Z,8.90
2018-12-07T05:15:27.302Z,8.90
2018-12-07T05:20:02.194Z,8.80
2018-12-07T05:24:37.139Z,8.80
2018-12-07T05:29:12.052Z,8.80
2018-12-07T05:33:46.921Z,8.80
2018-12-07T05:38:22.327Z,8.80
2018-12-07T05:42:57.189Z,8.90
2018-12-07T05:47:38.555Z,8.90
2018-12-07T05:52:13.420Z,9.00
2018-12-07T05:56:48.327Z,9.10
2018-12-07T06:01:23.196Z,9.10
2018-12-07T06:05:58.185Z,9.10
2018-12-07T06:10:33.234Z,9.10
2018-12-07T06:15:08.114Z,9.10
2018-12-07T06:19:42.986Z,9.10
2018-12-07T06:24:17.876Z,9.10
2018-12-07T06:28:52.748Z,9.10
2018-12-07T06:33:27.668Z,9.10
2018-12-07T06:38:02.539Z,9.10
2018-12-07T06:42:37.431Z,9.00
2018-12-07T06:47:12.295Z,9.00
2018-12-07T06:51:47.184Z,9.00
2018-12-07T06:56:22.052Z,9.10
2018-12-07T07:00:56.928Z,9.10
2018-12-07T07:05:31.788Z,9.10
2018-12-07T07:10:07.908Z,9.10
2018-12-07T07:14:43.234Z,9.20
2018-12-07T07:19:18.119Z,9.20
2018-12-07T07:23:52.985Z,9.20
2018-12-07T07:28:27.860Z,9.20
2018-12-07T07:33:02.731Z,9.20
2018-12-07T07:37:37.627Z,9.30
2018-12-07T07:42:12.492Z,9.30
2018-12-07T07:46:47.460Z,9.30
2018-12-07T07:51:22.327Z,9.30
2018-12-07T07:55:57.219Z,9.30
2018-12-07T08:00:32.088Z,9.30
2018-12-07T08:05:06.976Z,9.40
2018-12-07T08:09:41.836Z,9.50
2018-12-07T08:14:16.741Z,9.60
2018-12-07T08:18:51.606Z,9.60
2018-12-07T08:23:26.618Z,9.60
2018-12-07T08:28:01.487Z,9.50
2018-12-07T08:32:36.367Z,9.50
2018-12-07T08:37:11.229Z,9.50
2018-12-07T08:41:46.131Z,9.70
2018-12-07T08:46:20.995Z,9.70
2018-12-07T08:50:55.883Z,9.80
2018-12-07T08:55:30.753Z,9.90
2018-12-07T09:00:08.048Z,10.00
2018-12-07T09:04:42.916Z,10.00
2018-12-07T09:09:17.798Z,10.10
2018-12-07T09:13:52.676Z,10.10
2018-12-07T09:18:27.569Z,10.10
2018-12-07T09:23:02.439Z,10.10
2018-12-07T09:27:37.332Z,10.20
2018-12-07T09:32:12.205Z,10.20
2018-12-07T09:36:47.100Z,10.10
2018-12-07T09:41:21.968Z,10.20
2018-12-07T09:45:56.901Z,10.30
2018-12-07T09:50:31.771Z,10.30
2018-12-07T09:55:06.668Z,10.50
2018-12-07T09:59:41.527Z,10.60
2018-12-07T10:04:16.414Z,10.60
2018-12-07T10:08:51.287Z,10.70
2018-12-07T10:13:26.177Z,10.70
2018-12-07T10:18:01.038Z,10.80
2018-12-07T10:22:35.951Z,10.90
2018-12-07T10:27:10.818Z,10.90
2018-12-07T10:31:45.712Z,11.00
2018-12-07T10:36:20.611Z,11.10
2018-12-07T10:40:55.491Z,11.10
2018-12-07T10:45:30.360Z,11.10
2018-12-07T10:50:05.936Z,11.20
2018-12-07T10:54:41.368Z,11.30
2018-12-07T10:59:16.320Z,11.30
2018-12-07T11:03:56.574Z,11.30
2018-12-07T11:10:44.396Z,11.40
2018-12-07T11:15:24.431Z,11.50
2018-12-07T11:20:04.743Z,11.40
2018-12-07T11:24:44.975Z,11.40
2018-12-07T11:29:25.242Z,11.50
2018-12-07T11:34:09.403Z,11.70
2018-12-07T11:38:44.300Z,11.80
2018-12-07T11:43:19.180Z,11.90
2018-12-07T11:47:54.073Z,11.90
2018-12-07T11:52:28.983Z,12.00
2018-12-07T11:57:03.863Z,12.00
2018-12-07T12:01:44.697Z,12.00
2018-12-07T12:06:15.619Z,12.10
2018-12-07T12:10:50.496Z,12.30
2018-12-07T12:15:25.391Z,12.20
2018-12-07T12:20:00.266Z,12.30
2018-12-07T12:24:35.164Z,12.30
2018-12-07T12:29:10.039Z,12.30
2018-12-07T12:33:44.935Z,12.30
2018-12-07T12:38:19.812Z,12.40
2018-12-07T12:42:54.720Z,12.60
2018-12-07T12:47:29.588Z,12.70
2018-12-07T12:52:04.479Z,12.70
2018-12-07T12:56:39.535Z,12.80
2018-12-07T13:01:14.459Z,12.80
2018-12-07T13:05:49.334Z,13.00
2018-12-07T13:10:24.204Z,13.00
2018-12-07T13:14:59.096Z,13.10
2018-12-07T13:19:33.986Z,13.20
2018-12-07T13:24:08.860Z,13.20
2018-12-07T13:28:43.756Z,13.30
2018-12-07T13:33:19.224Z,13.20
2018-12-07T13:37:54.139Z,13.30
2018-12-07T13:42:29.024Z,13.30
2018-12-07T13:47:04.102Z,13.20
2018-12-07T13:51:39.260Z,13.10
2018-12-07T13:56:16.358Z,13.00
2018-12-07T14:00:51.182Z,12.80
2018-12-07T14:05:32.242Z,12.80
2018-12-07T14:10:03.349Z,12.90
2018-12-07T14:14:38.401Z,12.80
2018-12-07T14:19:13.705Z,12.60
2018-12-07T14:23:48.679Z,12.50
2018-12-07T14:28:23.663Z,12.50
2018-12-07T14:32:58.898Z,12.50
2018-12-07T14:37:34.076Z,12.40
2018-12-07T14:42:09.479Z,12.40
2018-12-07T14:46:45.435Z,12.30
2018-12-07T14:51:20.383Z,12.30
2018-12-07T14:55:55.408Z,12.30
2018-12-07T15:00:30.570Z,12.20
2018-12-07T15:05:06.065Z,12.20
2018-12-07T15:09:41.190Z,12.30
2018-12-07T15:14:16.081Z,12.10
2018-12-07T15:18:51.035Z,12.00
2018-12-07T15:23:26.537Z,11.80
2018-12-07T15:28:01.522Z,11.50
2018-12-07T15:32:37.403Z,11.40
2018-12-07T15:37:12.763Z,11.30
2018-12-07T15:41:47.914Z,11.10
2018-12-07T15:46:23.422Z,11.10
2018-12-07T15:50:58.687Z,10.90
2018-12-07T15:55:34.247Z,10.90
2018-12-07T16:00:09.809Z,10.80
2018-12-07T16:04:44.918Z,10.70
2018-12-07T16:09:20.370Z,10.40
2018-12-07T16:13:55.639Z,10.30
2018-12-07T16:18:30.674Z,10.40
2018-12-07T16:23:06.880Z,10.40
2018-12-07T16:27:42.047Z,10.30
2018-12-07T16:32:17.810Z,10.40
2018-12-07T16:36:53.308Z,10.40
2018-12-07T16:41:28.734Z,10.20
2018-12-07T16:46:04.064Z,10.30
2018-12-07T16:50:39.045Z,10.20
2018-12-07T16:55:14.048Z,10.20
2018-12-07T16:59:49.340Z,10.00
2018-12-07T17:04:24.746Z,10.00
2018-12-07T17:09:00.293Z,10.00
2018-12-07T17:13:35.637Z,9.80
2018-12-07T17:18:10.701Z,9.80
2018-12-07T17:22:45.639Z,9.70
2018-12-07T17:27:21.265Z,9.40
2018-12-07T17:31:56.152Z,9.40
2018-12-07T17:36:31.248Z,9.20
2018-12-07T17:41:06.244Z,9.30
2018-12-07T17:45:41.322Z,9.10
2018-12-07T17:50:16.679Z,9.10
2018-12-07T17:54:51.792Z,9.20
2018-12-07T17:59:26.843Z,9.30
2018-12-07T18:04:02.039Z,9.30
2018-12-07T18:08:37.036Z,9.40
2018-12-07T18:13:12.174Z,9.30
2018-12-07T18:17:47.497Z,9.20
2018-12-07T18:22:22.891Z,9.30
2018-12-07T18:26:58.349Z,9.10
2018-12-07T18:31:33.726Z,9.20
2018-12-07T18:36:08.939Z,9.00
2018-12-07T18:40:44.090Z,9.00
2018-12-07T18:45:19.006Z,9.00
2018-12-07T18:49:56.071Z,9.10
2018-12-07T18:54:31.260Z,8.90
2018-12-07T18:59:06.323Z,9.00
2018-12-07T19:03:41.277Z,9.10
2018-12-07T19:08:16.560Z,9.20
2018-12-07T19:12:51.667Z,9.20
2018-12-07T19:17:26.758Z,9.20
2018-12-07T19:22:01.946Z,9.10
2018-12-07T19:26:37.346Z,9.00
2018-12-07T19:31:12.533Z,9.10
2018-12-07T19:35:47.838Z,9.20
2018-12-07T19:40:23.221Z,9.20
2018-12-07T19:44:58.432Z,9.20
2018-12-07T19:49:33.570Z,9.20
2018-12-07T19:54:08.684Z,9.30
2018-12-07T19:58:43.971Z,9.20
2018-12-07T20:03:19.065Z,9.40
2018-12-07T20:07:55.167Z,9.40
2018-12-07T20:12:30.535Z,9.60
2018-12-07T20:17:05.602Z,9.60
2018-12-07T20:21:41.116Z,9.80
2018-12-07T20:26:16.535Z,9.80
2018-12-07T20:30:51.514Z,10.00
2018-12-07T20:35:26.860Z,9.90
2018-12-07T20:40:02.166Z,9.80
2018-12-07T20:44:37.521Z,9.90
2018-12-07T20:49:13.231Z,9.90
2018-12-07T20:53:48.411Z,9.80
2018-12-07T20:58:23.563Z,9.90
2018-12-07T21:02:58.747Z,10.00
2018-12-07T21:09:40.847Z,10.00
2018-12-07T21:14:32.566Z,10.00
2018-12-07T21:19:07.641Z,10.30
2018-12-07T21:23:42.909Z,10.50
2018-12-07T21:28:17.981Z,10.50
2018-12-07T21:32:52.850Z,10.60
2018-12-07T21:37:27.973Z,10.40
2018-12-07T21:42:03.090Z,10.10
2018-12-07T21:46:38.008Z,10.00
2018-12-07T21:51:17.915Z,10.00
2018-12-07T21:55:53.132Z,10.00
2018-12-07T22:00:28.303Z,9.80
2018-12-07T22:05:03.728Z,9.90
2018-12-07T22:09:38.874Z,10.00
2018-12-07T22:14:13.792Z,10.10
2018-12-07T22:18:48.958Z,10.10
2018-12-07T22:23:24.128Z,10.10
2018-12-07T22:27:59.386Z,9.30
2018-12-07T22:32:34.627Z,8.60
2018-12-07T22:37:09.869Z,8.40
2018-12-07T22:41:45.091Z,8.30
2018-12-07T22:46:20.313Z,8.20
2018-12-07T22:50:55.235Z,8.20
2018-12-07T22:55:30.107Z,8.30
2018-12-07T23:00:06.930Z,8.30
2018-12-07T23:04:41.796Z,8.50
2018-12-07T23:09:16.687Z,8.50
2018-12-07T23:13:51.568Z,8.40
2018-12-07T23:18:26.459Z,8.50
2018-12-07T23:23:01.407Z,8.40
2018-12-07T23:27:36.298Z,8.40
2018-12-07T23:32:11.497Z,8.40
2018-12-07T23:36:46.396Z,8.30
2018-12-07T23:41:21.299Z,8.00
2018-12-07T23:45:56.203Z,7.80
2018-12-07T23:50:31.088Z,7.60
2018-12-07T23:55:06.648Z,7.60
2018-12-07T23:59:41.541Z,7.60
